Emma Bardán — ECJU — position and weather

sailwx.info

Track history (hours):
 
Tides and Currents Weather Stations Pressure Air Temp Water Temp Dewpoint Dewpoint Depression Visibility Wind Speed Wind Dir Waves Ship Positions

Oceanographic research ship Emma Bardán (Spain)

Ship's website: http://www.mapa.es/es/pesca/pags/emma_web/index.htm

Last reported at 2019-Oct-04 12:15 UTC. Time now 2019-Oct-17 17:04 UTC.
Position N 43°27' W 003°49'.
Warning: this ship's position is 13 days out of date.

Length 29 m; draft 3.6 m.

Type: . MMSI: 224756000.

Date/timePositionNaut miles runAvg speedWind from/ knotsBaromVisibWave heightAir tempDewpointWater temp
2019-Oct-04 12:15N 43°27' W 003°49'6 0.4
2019-Oct-03 19:45N 43°31' W 003°44'2 9.0
2019-Oct-03 19:30N 43°33' W 003°43'2 3.9
2019-Oct-03 19:00N 43°35' W 003°43'2 4.0
2019-Oct-03 18:24N 43°38' W 003°43'1 1.0
2019-Oct-03 17:49N 43°38' W 003°43'0 1.1
2019-Oct-03 17:30N 43°38' W 003°43'0 0.5
2019-Oct-03 17:00N 43°38' W 003°43'8 6.4
2019-Oct-03 15:45N 43°33' W 003°34'3 9.7
2019-Oct-03 15:27N 43°31' W 003°30'410.1
2019-Oct-03 15:01N 43°29' W 003°25'2 3.9
2019-Oct-03 14:31N 43°29' W 003°23'5 9.6
2019-Oct-03 14:00N 43°34' W 003°23'5 9.9
2019-Oct-03 13:30N 43°39' W 003°23'5 9.9
2019-Oct-03 12:59N 43°44' W 003°23'8 9.7
2019-Oct-03 12:11N 43°52' W 003°23'17 4.1
2019-Oct-03 08:07N 43°44' W 003°43'1 9.3
2019-Oct-03 08:00N 43°43' W 003°43'5 9.5
2019-Oct-03 07:30N 43°38' W 003°43'5 9.6
2019-Oct-03 07:00N 43°33' W 003°43'7 7.6
2019-Oct-03 06:02N 43°27' W 003°49'0 0.0
2019-Oct-03 05:47N 43°27' W 003°49'0 0.0
2019-Oct-03 05:29N 43°27' W 003°49'0 0.0
2019-Oct-03 05:00N 43°27' W 003°49'0 0.0
2019-Oct-03 04:29N 43°27' W 003°49'0 0.0
2019-Oct-03 03:59N 43°27' W 003°49'0 0.0
2019-Oct-03 03:25N 43°27' W 003°49'0 0.0
2019-Oct-03 02:50N 43°27' W 003°49'0 0.0
2019-Oct-03 02:30N 43°27' W 003°49'0 0.0
2019-Oct-03 01:44N 43°27' W 003°49'0 0.0
2019-Oct-03 01:15N 43°27' W 003°49'0 0.0
2019-Oct-02 20:04N 43°27' W 003°49'0 0.0
2019-Oct-02 18:14N 43°27' W 003°49'0 0.0
2019-Oct-02 17:48N 43°27' W 003°49'0 0.0
2019-Oct-02 17:10N 43°27' W 003°49'0 0.0
2019-Oct-02 11:42N 43°27' W 003°49'0 0.0
2019-Oct-02 10:31N 43°27' W 003°49'0 0.0
2019-Oct-02 10:21N 43°27' W 003°49'0 0.0
2019-Oct-02 09:55N 43°27' W 003°49'0 0.0
2019-Oct-02 09:28N 43°27' W 003°49'0 0.0
2019-Oct-02 08:55N 43°27' W 003°49'0 0.0
2019-Oct-02 08:27N 43°27' W 003°49'0 0.0
2019-Oct-02 07:51N 43°27' W 003°49'0 0.0
2019-Oct-02 07:28N 43°27' W 003°49'0 0.0
2019-Oct-02 07:00N 43°27' W 003°49'0 0.0
2019-Oct-02 06:30N 43°27' W 003°49'0 0.0
2019-Oct-02 06:00N 43°27' W 003°49'0 0.0
2019-Oct-02 05:30N 43°27' W 003°49'0 0.0
2019-Oct-02 05:00N 43°27' W 003°49'0 0.0
2019-Oct-02 04:22N 43°27' W 003°49'0 0.0
2019-Oct-02 03:56N 43°27' W 003°49'0 0.0
2019-Oct-02 03:30N 43°27' W 003°49'0 0.0
2019-Oct-02 01:19N 43°27' W 003°49'0 0.0
2019-Oct-01 23:32N 43°27' W 003°49'0 0.0
2019-Oct-01 22:56N 43°27' W 003°49'0 0.0
2019-Oct-01 16:34N 43°27' W 003°49'0 0.0
2019-Oct-01 16:22N 43°27' W 003°49'0 0.0
2019-Oct-01 15:51N 43°27' W 003°49'0 0.0
2019-Oct-01 15:21N 43°27' W 003°49'0 0.0
2019-Oct-01 15:00N 43°27' W 003°49'0 0.0
2019-Oct-01 09:29N 43°27' W 003°49'0 0.0
2019-Oct-01 08:23N 43°27' W 003°49'0 0.0
2019-Oct-01 05:31N 43°27' W 003°49'0 0.0
2019-Oct-01 05:25N 43°27' W 003°49'0 0.0
2019-Oct-01 05:01N 43°27' W 003°49'0 0.0
2019-Oct-01 04:28N 43°27' W 003°49'0 0.0
2019-Oct-01 03:51N 43°27' W 003°49'0 0.0
2019-Oct-01 03:23N 43°27' W 003°49'0 0.0
2019-Oct-01 03:01N 43°27' W 003°49'0 0.0
2019-Oct-01 02:16N 43°27' W 003°49'0 0.0
2019-Oct-01 01:59N 43°27' W 003°49'0 0.0
2019-Oct-01 01:29N 43°27' W 003°49'0 0.0
2019-Sep-30 22:21N 43°27' W 003°49'0 0.0
2019-Sep-30 21:59N 43°27' W 003°49'0 0.0
2019-Sep-30 21:30N 43°27' W 003°49'0 0.0
2019-Sep-30 20:48N 43°27' W 003°49'0 0.0
2019-Sep-30 20:30N 43°27' W 003°49'0 0.0
2019-Sep-30 20:00N 43°27' W 003°49'0 0.0
2019-Sep-30 19:27N 43°27' W 003°49'0 0.0
2019-Sep-30 18:58N 43°27' W 003°49'0 0.0
2019-Sep-30 18:15N 43°27' W 003°49'0 0.0
2019-Sep-30 17:54N 43°27' W 003°49'0 0.0
2019-Sep-30 17:30N 43°27' W 003°49'0 0.0
2019-Sep-30 16:54N 43°27' W 003°49'0 0.5
2019-Sep-30 16:17N 43°27' W 003°48'710.0
2019-Sep-30 15:37N 43°31' W 003°40'110.3
2019-Sep-30 15:30N 43°31' W 003°39'510.2
2019-Sep-30 15:01N 43°32' W 003°32'510.0
2019-Sep-30 14:31N 43°32' W 003°25'510.2
2019-Sep-30 14:00N 43°31' W 003°18'510.2
2019-Sep-30 13:30N 43°31' W 003°11'510.4
2019-Sep-30 13:01N 43°31' W 003°04'510.3
2019-Sep-30 12:31N 43°30' W 002°57'510.2
2019-Sep-30 12:01N 43°30' W 002°50'510.2
2019-Sep-30 11:31N 43°29' W 002°43'510.3
2019-Sep-30 11:01N 43°28' W 002°36'510.3
2019-Sep-30 10:30N 43°27' W 002°29'510.1
2019-Sep-30 10:00N 43°26' W 002°22'510.2
2019-Sep-30 09:30N 43°24' W 002°16'510.0
2019-Sep-30 09:01N 43°23' W 002°09'510.3
2019-Sep-30 08:31N 43°22' W 002°02'5 9.8
2019-Sep-30 08:00N 43°20' W 001°56'1 1.5
2019-Sep-30 07:29N 43°19' W 001°56'0 0.0
2019-Sep-30 06:59N 43°19' W 001°56'0 0.0
2019-Sep-30 06:28N 43°19' W 001°56'0 0.0
2019-Sep-30 05:57N 43°19' W 001°56'0 0.0
2019-Sep-30 05:25N 43°19' W 001°56'0 0.0
2019-Sep-30 04:46N 43°19' W 001°56'0 0.0
2019-Sep-30 04:28N 43°19' W 001°56'0 0.0
2019-Sep-30 03:53N 43°19' W 001°56'0 0.0
2019-Sep-30 03:19N 43°19' W 001°56'0 0.0
2019-Sep-30 02:40N 43°19' W 001°56'0 0.0
2019-Sep-30 02:26N 43°19' W 001°56'0 0.0
2019-Sep-30 01:56N 43°19' W 001°56'0 0.0
2019-Sep-30 01:30N 43°19' W 001°56'0 0.0
2019-Sep-30 00:57N 43°19' W 001°56'0 0.0
2019-Sep-30 00:28N 43°19' W 001°56'0 0.0
2019-Sep-30 00:00N 43°19' W 001°56'0 0.0
2019-Sep-29 23:30N 43°19' W 001°56'0 0.0
2019-Sep-29 22:13N 43°19' W 001°56'0 0.0
2019-Sep-29 21:49N 43°19' W 001°56'0 0.0
2019-Sep-29 21:13N 43°19' W 001°56'0 0.0
2019-Sep-29 20:52N 43°19' W 001°56'0 0.0
2019-Sep-29 20:30N 43°19' W 001°56'0 0.0
2019-Sep-29 20:00N 43°19' W 001°56'0 0.0
2019-Sep-29 19:21N 43°19' W 001°56'0 0.0
2019-Sep-29 18:59N 43°19' W 001°56'0 0.0
2019-Sep-29 18:23N 43°19' W 001°56'0 0.0
2019-Sep-29 17:58N 43°19' W 001°56'0 0.0
2019-Sep-29 17:21N 43°19' W 001°56'0 0.0
2019-Sep-29 16:54N 43°19' W 001°56'0 0.0
2019-Sep-29 16:27N 43°19' W 001°56'0 0.0
2019-Sep-29 15:50N 43°19' W 001°56'0 0.0
2019-Sep-29 15:18N 43°19' W 001°56'0 0.0
2019-Sep-29 14:48N 43°19' W 001°56'0 0.0
2019-Sep-29 14:29N 43°19' W 001°56'0 0.0
2019-Sep-29 14:01N 43°19' W 001°56'0 0.0
2019-Sep-29 13:30N 43°19' W 001°56'0 0.0
2019-Sep-29 13:00N 43°19' W 001°56'0 0.0
2019-Sep-29 12:31N 43°19' W 001°56'0 0.0
2019-Sep-29 11:57N 43°19' W 001°56'0 0.0
2019-Sep-29 11:30N 43°19' W 001°56'0 0.0
2019-Sep-29 11:00N 43°19' W 001°56'0 0.0
2019-Sep-29 10:30N 43°19' W 001°56'0 0.0
2019-Sep-29 10:00N 43°19' W 001°56'0 0.0
2019-Sep-29 09:31N 43°19' W 001°56'0 0.0
2019-Sep-29 08:59N 43°19' W 001°56'0 0.0
2019-Sep-29 08:30N 43°19' W 001°56'0 0.0
2019-Sep-29 07:58N 43°19' W 001°56'0 0.0
2019-Sep-29 07:29N 43°19' W 001°56'0 0.0
2019-Sep-29 07:00N 43°19' W 001°56'0 0.0
2019-Sep-29 06:30N 43°19' W 001°56'0 0.0
2019-Sep-29 05:59N 43°19' W 001°56'0 0.0
2019-Sep-29 05:28N 43°19' W 001°56'0 0.0
2019-Sep-29 05:00N 43°19' W 001°56'0 0.0
2019-Sep-29 04:30N 43°19' W 001°56'0 0.0
2019-Sep-29 03:55N 43°19' W 001°56'0 0.0
2019-Sep-29 03:21N 43°19' W 001°56'0 0.0
2019-Sep-29 02:55N 43°19' W 001°56'0 0.0
2019-Sep-29 02:26N 43°19' W 001°56'0 0.0
2019-Sep-29 01:58N 43°19' W 001°56'0 0.0
2019-Sep-29 01:23N 43°19' W 001°56'0 0.0
2019-Sep-29 00:47N 43°19' W 001°56'0 0.0
2019-Sep-29 00:25N 43°19' W 001°56'0 0.0
2019-Sep-29 00:00N 43°19' W 001°56'0 0.0
2019-Sep-28 23:29N 43°19' W 001°56'0 0.0
2019-Sep-28 23:00N 43°19' W 001°56'0 0.0
2019-Sep-28 22:30N 43°19' W 001°56'0 0.0
2019-Sep-28 22:00N 43°19' W 001°56'0 0.0
2019-Sep-28 21:28N 43°19' W 001°56'0 0.0
2019-Sep-28 21:01N 43°19' W 001°56'0 0.0
2019-Sep-28 20:31N 43°19' W 001°56'0 0.0
2019-Sep-28 20:00N 43°19' W 001°56'0 0.0
2019-Sep-28 19:30N 43°19' W 001°56'0 0.0
2019-Sep-28 18:59N 43°19' W 001°56'0 0.0
2019-Sep-28 18:26N 43°19' W 001°56'0 0.0
2019-Sep-28 17:59N 43°19' W 001°56'0 0.0
2019-Sep-28 17:24N 43°19' W 001°56'0 0.0
2019-Sep-28 16:59N 43°19' W 001°56'0 0.0
2019-Sep-28 16:27N 43°19' W 001°56'0 0.0
2019-Sep-28 15:28N 43°19' W 001°56'0 0.0
2019-Sep-28 14:48N 43°19' W 001°56'0 0.0
2019-Sep-28 14:19N 43°19' W 001°56'0 0.0
2019-Sep-28 13:55N 43°19' W 001°56'0 0.0
2019-Sep-28 13:30N 43°19' W 001°56'0 0.0
2019-Sep-28 12:58N 43°19' W 001°56'0 0.0
2019-Sep-28 12:29N 43°19' W 001°56'0 0.0
2019-Sep-28 11:51N 43°19' W 001°56'0 0.0
2019-Sep-28 11:30N 43°19' W 001°56'0 0.0
2019-Sep-28 11:00N 43°19' W 001°56'0 0.0
2019-Sep-28 10:30N 43°19' W 001°56'0 0.0
2019-Sep-28 10:00N 43°19' W 001°56'0 0.0
2019-Sep-28 09:30N 43°19' W 001°56'0 0.0
2019-Sep-28 09:00N 43°19' W 001°56'0 0.0
2019-Sep-28 08:30N 43°19' W 001°56'0 0.0
2019-Sep-28 08:00N 43°19' W 001°56'0 0.0
2019-Sep-28 07:28N 43°19' W 001°56'0 0.0
2019-Sep-28 06:55N 43°19' W 001°56'0 0.0
2019-Sep-28 06:12N 43°19' W 001°56'0 0.0
2019-Sep-28 05:58N 43°19' W 001°56'0 0.0
2019-Sep-28 05:11N 43°19' W 001°56'0 0.0
2019-Sep-28 04:50N 43°19' W 001°56'0 0.0
2019-Sep-28 04:17N 43°19' W 001°56'0 0.0
2019-Sep-28 03:58N 43°19' W 001°56'0 0.0
2019-Sep-28 02:57N 43°19' W 001°56'0 0.0
2019-Sep-28 02:15N 43°19' W 001°56'0 0.0
2019-Sep-28 01:53N 43°19' W 001°56'0 0.0
2019-Sep-28 01:28N 43°19' W 001°56'0 0.0
2019-Sep-27 23:34N 43°19' W 001°56'0 0.0
2019-Sep-27 23:30N 43°19' W 001°56'0 0.0
2019-Sep-27 22:04N 43°19' W 001°56'0 0.0
2019-Sep-27 19:08N 43°19' W 001°56'0 0.0
2019-Sep-27 18:52N 43°19' W 001°56'0 0.0
2019-Sep-27 18:27N 43°19' W 001°56'0 0.0
2019-Sep-27 17:48N 43°19' W 001°56'0 0.0
2019-Sep-27 16:57N 43°19' W 001°56'0 0.0
2019-Sep-27 16:28N 43°19' W 001°56'0 0.0
2019-Sep-27 15:59N 43°19' W 001°56'0 0.0
2019-Sep-27 15:30N 43°19' W 001°56'0 0.0
2019-Sep-27 15:00N 43°19' W 001°56'0 0.0
2019-Sep-27 14:30N 43°19' W 001°56'0 0.0
2019-Sep-27 13:58N 43°19' W 001°56'0 0.0
2019-Sep-27 13:23N 43°19' W 001°56'0 0.0
2019-Sep-27 13:00N 43°19' W 001°56'0 0.0
2019-Sep-27 12:29N 43°19' W 001°56'0 0.0
2019-Sep-27 12:00N 43°19' W 001°56'0 0.0
2019-Sep-27 11:30N 43°19' W 001°56'0 0.0
2019-Sep-27 11:00N 43°19' W 001°56'0 0.0
2019-Sep-27 10:30N 43°19' W 001°56'0 0.0
2019-Sep-27 10:00N 43°19' W 001°56'0 0.0
2019-Sep-27 09:29N 43°19' W 001°56'0 0.0
2019-Sep-27 09:00N 43°19' W 001°56'0 0.0
2019-Sep-27 08:30N 43°19' W 001°56'0 0.0
2019-Sep-27 07:59N 43°19' W 001°56'0 0.0
2019-Sep-27 07:30N 43°19' W 001°56'0 0.0
2019-Sep-27 06:57N 43°19' W 001°56'0 0.0
2019-Sep-27 06:30N 43°19' W 001°56'0 0.0
2019-Sep-27 06:00N 43°19' W 001°56'0 0.0
2019-Sep-27 05:24N 43°19' W 001°56'0 0.0
2019-Sep-27 02:45N 43°19' W 001°56'0 0.0
2019-Sep-27 01:18N 43°19' W 001°56'0 0.0
2019-Sep-27 00:37N 43°19' W 001°56'0 0.0
2019-Sep-27 00:08N 43°19' W 001°56'0 0.0
2019-Sep-26 23:56N 43°19' W 001°56'0 0.0
2019-Sep-26 23:26N 43°19' W 001°56'0 0.0
2019-Sep-26 23:00N 43°19' W 001°56'0 0.0
2019-Sep-26 22:17N 43°19' W 001°56'0 0.0
2019-Sep-26 22:00N 43°19' W 001°56'0 0.0
2019-Sep-26 21:28N 43°19' W 001°56'0 0.0
2019-Sep-26 21:00N 43°19' W 001°56'0 0.0
2019-Sep-26 20:27N 43°19' W 001°56'0 0.0
2019-Sep-26 19:59N 43°19' W 001°56'0 0.0
2019-Sep-26 19:30N 43°19' W 001°56'0 0.0
2019-Sep-26 18:59N 43°19' W 001°56'0 0.0
2019-Sep-26 18:30N 43°19' W 001°56'0 0.0
2019-Sep-26 18:00N 43°19' W 001°56'0 0.0
2019-Sep-26 17:30N 43°19' W 001°56'0 0.0
2019-Sep-26 16:59N 43°19' W 001°56'0 0.0
2019-Sep-26 16:29N 43°19' W 001°56'0 0.0
2019-Sep-26 15:32N 43°19' W 001°56'0 0.0
2019-Sep-26 15:26N 43°19' W 001°56'0 0.0
2019-Sep-26 14:58N 43°19' W 001°56'0 0.0
2019-Sep-26 14:27N 43°19' W 001°56'0 0.0
2019-Sep-26 13:52N 43°19' W 001°56'0 0.0
2019-Sep-26 13:24N 43°19' W 001°56'0 0.0
2019-Sep-26 12:58N 43°19' W 001°56'0 0.0
2019-Sep-26 12:27N 43°19' W 001°56'0 0.0
2019-Sep-26 12:00N 43°19' W 001°56'0 0.0
2019-Sep-26 11:28N 43°19' W 001°56'0 0.0
2019-Sep-26 10:58N 43°19' W 001°56'0 0.0
2019-Sep-26 10:30N 43°19' W 001°56'0 0.0
2019-Sep-26 10:00N 43°19' W 001°56'0 0.0
2019-Sep-26 09:30N 43°19' W 001°56'0 0.0
2019-Sep-26 08:59N 43°19' W 001°56'0 0.0
2019-Sep-26 08:30N 43°19' W 001°56'0 0.0
2019-Sep-26 08:00N 43°19' W 001°56'0 0.0
2019-Sep-26 07:30N 43°19' W 001°56'0 0.0
2019-Sep-26 07:00N 43°19' W 001°56'0 0.0
2019-Sep-26 06:30N 43°19' W 001°56'0 0.0
2019-Sep-26 06:00N 43°19' W 001°56'0 0.0
2019-Sep-26 05:30N 43°19' W 001°56'0 0.0
2019-Sep-26 05:00N 43°19' W 001°56'0 0.0
2019-Sep-26 04:30N 43°19' W 001°56'0 0.0
2019-Sep-26 04:00N 43°19' W 001°56'0 0.0
2019-Sep-26 03:30N 43°19' W 001°56'0 0.0
2019-Sep-26 03:00N 43°19' W 001°56'0 0.0
2019-Sep-26 02:30N 43°19' W 001°56'0 0.0
2019-Sep-26 01:27N 43°19' W 001°56'0 0.0
2019-Sep-26 00:59N 43°19' W 001°56'0 0.0
2019-Sep-26 00:27N 43°19' W 001°56'0 0.0
2019-Sep-26 00:00N 43°19' W 001°56'0 0.0
2019-Sep-25 23:27N 43°19' W 001°56'0 0.0
2019-Sep-25 22:51N 43°19' W 001°56'0 0.0
2019-Sep-25 21:10N 43°19' W 001°56'0 0.0
2019-Sep-25 20:59N 43°19' W 001°56'0 0.0
2019-Sep-25 20:30N 43°19' W 001°56'0 0.0
2019-Sep-25 20:00N 43°19' W 001°56'0 0.0
2019-Sep-25 19:24N 43°19' W 001°56'0 0.0
2019-Sep-25 19:00N 43°19' W 001°56'0 0.0
2019-Sep-25 18:31N 43°19' W 001°56'0 0.0
2019-Sep-25 18:00N 43°19' W 001°56'0 0.0
2019-Sep-25 17:30N 43°19' W 001°56'0 0.0
2019-Sep-25 17:00N 43°19' W 001°56'0 0.0
2019-Sep-25 16:28N 43°19' W 001°56'0 0.0
2019-Sep-25 15:58N 43°19' W 001°56'0 0.0
2019-Sep-25 15:27N 43°19' W 001°56'0 0.0
2019-Sep-25 14:56N 43°19' W 001°56'0 0.0
2019-Sep-25 14:28N 43°19' W 001°56'0 0.0
2019-Sep-25 14:00N 43°19' W 001°56'0 0.0
2019-Sep-25 13:29N 43°19' W 001°56'0 0.0
2019-Sep-25 12:59N 43°19' W 001°56'0 0.0
2019-Sep-25 12:15N 43°19' W 001°56'0 0.0
2019-Sep-25 11:59N 43°19' W 001°56'0 0.0
2019-Sep-25 11:20N 43°19' W 001°56'0 0.0
2019-Sep-25 10:59N 43°19' W 001°56'0 0.0
2019-Sep-25 10:31N 43°19' W 001°56'0 0.0
2019-Sep-25 10:00N 43°19' W 001°56'0 0.0
2019-Sep-25 09:28N 43°19' W 001°56'0 0.0
2019-Sep-25 08:56N 43°19' W 001°56'0 0.0
2019-Sep-25 08:30N 43°19' W 001°56'0 0.0
2019-Sep-25 08:00N 43°19' W 001°56'0 0.0
2019-Sep-25 07:23N 43°19' W 001°56'0 0.0
2019-Sep-25 06:56N 43°19' W 001°56'0 0.0
2019-Sep-25 06:30N 43°19' W 001°56'0 0.0
2019-Sep-25 05:59N 43°19' W 001°56'0 0.0
2019-Sep-25 05:30N 43°19' W 001°56'0 0.0
2019-Sep-25 05:00N 43°19' W 001°56'0 0.0
2019-Sep-25 04:30N 43°19' W 001°56'0 0.0
2019-Sep-25 04:00N 43°19' W 001°56'0 0.0
2019-Sep-25 03:28N 43°19' W 001°56'0 0.0
2019-Sep-25 02:57N 43°19' W 001°56'0 0.0
2019-Sep-25 02:30N 43°19' W 001°56'0 0.0
2019-Sep-25 01:58N 43°19' W 001°56'0 0.0
2019-Sep-25 01:29N 43°19' W 001°56'0 0.0
2019-Sep-25 00:59N 43°19' W 001°56'0 0.0
2019-Sep-25 00:25N 43°19' W 001°56'0 0.0
2019-Sep-25 00:00N 43°19' W 001°56'0 0.0
2019-Sep-24 23:29N 43°19' W 001°56'0 0.0
2019-Sep-24 16:04N 43°19' W 001°56'0 0.0
2019-Sep-24 15:59N 43°19' W 001°56'0 0.0
2019-Sep-24 15:23N 43°19' W 001°56'0 0.0
2019-Sep-24 14:59N 43°19' W 001°56'0 0.0
2019-Sep-24 14:30N 43°19' W 001°56'0 0.0
2019-Sep-24 13:58N 43°19' W 001°56'0 0.0
2019-Sep-24 13:28N 43°19' W 001°56'0 0.0
2019-Sep-24 12:47N 43°19' W 001°56'  
Track history (hours):
 
Tides and Currents Weather Stations Pressure Air Temp Water Temp Dewpoint Dewpoint Depression Visibility Wind Speed Wind Dir Waves Ship Positions

Oceanographic research ship Emma Bardán (Spain)

Ship's website: http://www.mapa.es/es/pesca/pags/emma_web/index.htm

Last reported at 2019-Oct-04 12:15 UTC. Time now 2019-Oct-17 17:04 UTC.
Position N 43°27' W 003°49'.
Warning: this ship's position is 13 days out of date.

Length 29 m; draft 3.6 m.

Type: . MMSI: 224756000.

Date/timePositionNaut miles runAvg speedWind from/ knotsBaromVisibWave heightAir tempDewpointWater temp
2019-Oct-04 12:15N 43°27' W 003°49'6 0.4
2019-Oct-03 19:45N 43°31' W 003°44'2 9.0
2019-Oct-03 19:30N 43°33' W 003°43'2 3.9
2019-Oct-03 19:00N 43°35' W 003°43'2 4.0
2019-Oct-03 18:24N 43°38' W 003°43'1 1.0
2019-Oct-03 17:49N 43°38' W 003°43'0 1.1
2019-Oct-03 17:30N 43°38' W 003°43'0 0.5
2019-Oct-03 17:00N 43°38' W 003°43'8 6.4
2019-Oct-03 15:45N 43°33' W 003°34'3 9.7
2019-Oct-03 15:27N 43°31' W 003°30'410.1
2019-Oct-03 15:01N 43°29' W 003°25'2 3.9
2019-Oct-03 14:31N 43°29' W 003°23'5 9.6
2019-Oct-03 14:00N 43°34' W 003°23'5 9.9
2019-Oct-03 13:30N 43°39' W 003°23'5 9.9
2019-Oct-03 12:59N 43°44' W 003°23'8 9.7
2019-Oct-03 12:11N 43°52' W 003°23'17 4.1
2019-Oct-03 08:07N 43°44' W 003°43'1 9.3
2019-Oct-03 08:00N 43°43' W 003°43'5 9.5
2019-Oct-03 07:30N 43°38' W 003°43'5 9.6
2019-Oct-03 07:00N 43°33' W 003°43'7 7.6
2019-Oct-03 06:02N 43°27' W 003°49'0 0.0
2019-Oct-03 05:47N 43°27' W 003°49'0 0.0
2019-Oct-03 05:29N 43°27' W 003°49'0 0.0
2019-Oct-03 05:00N 43°27' W 003°49'0 0.0
2019-Oct-03 04:29N 43°27' W 003°49'0 0.0
2019-Oct-03 03:59N 43°27' W 003°49'0 0.0
2019-Oct-03 03:25N 43°27' W 003°49'0 0.0
2019-Oct-03 02:50N 43°27' W 003°49'0 0.0
2019-Oct-03 02:30N 43°27' W 003°49'0 0.0
2019-Oct-03 01:44N 43°27' W 003°49'0 0.0
2019-Oct-03 01:15N 43°27' W 003°49'0 0.0
2019-Oct-02 20:04N 43°27' W 003°49'0 0.0
2019-Oct-02 18:14N 43°27' W 003°49'0 0.0
2019-Oct-02 17:48N 43°27' W 003°49'0 0.0
2019-Oct-02 17:10N 43°27' W 003°49'0 0.0
2019-Oct-02 11:42N 43°27' W 003°49'0 0.0
2019-Oct-02 10:31N 43°27' W 003°49'0 0.0
2019-Oct-02 10:21N 43°27' W 003°49'0 0.0
2019-Oct-02 09:55N 43°27' W 003°49'0 0.0
2019-Oct-02 09:28N 43°27' W 003°49'0 0.0
2019-Oct-02 08:55N 43°27' W 003°49'0 0.0
2019-Oct-02 08:27N 43°27' W 003°49'0 0.0
2019-Oct-02 07:51N 43°27' W 003°49'0 0.0
2019-Oct-02 07:28N 43°27' W 003°49'0 0.0
2019-Oct-02 07:00N 43°27' W 003°49'0 0.0
2019-Oct-02 06:30N 43°27' W 003°49'0 0.0
2019-Oct-02 06:00N 43°27' W 003°49'0 0.0
2019-Oct-02 05:30N 43°27' W 003°49'0 0.0
2019-Oct-02 05:00N 43°27' W 003°49'0 0.0
2019-Oct-02 04:22N 43°27' W 003°49'0 0.0
2019-Oct-02 03:56N 43°27' W 003°49'0 0.0
2019-Oct-02 03:30N 43°27' W 003°49'0 0.0
2019-Oct-02 01:19N 43°27' W 003°49'0 0.0
2019-Oct-01 23:32N 43°27' W 003°49'0 0.0
2019-Oct-01 22:56N 43°27' W 003°49'0 0.0
2019-Oct-01 16:34N 43°27' W 003°49'0 0.0
2019-Oct-01 16:22N 43°27' W 003°49'0 0.0
2019-Oct-01 15:51N 43°27' W 003°49'0 0.0
2019-Oct-01 15:21N 43°27' W 003°49'0 0.0
2019-Oct-01 15:00N 43°27' W 003°49'0 0.0
2019-Oct-01 09:29N 43°27' W 003°49'0 0.0
2019-Oct-01 08:23N 43°27' W 003°49'0 0.0
2019-Oct-01 05:31N 43°27' W 003°49'0 0.0
2019-Oct-01 05:25N 43°27' W 003°49'0 0.0
2019-Oct-01 05:01N 43°27' W 003°49'0 0.0
2019-Oct-01 04:28N 43°27' W 003°49'0 0.0
2019-Oct-01 03:51N 43°27' W 003°49'0 0.0
2019-Oct-01 03:23N 43°27' W 003°49'0 0.0
2019-Oct-01 03:01N 43°27' W 003°49'0 0.0
2019-Oct-01 02:16N 43°27' W 003°49'0 0.0
2019-Oct-01 01:59N 43°27' W 003°49'0 0.0
2019-Oct-01 01:29N 43°27' W 003°49'0 0.0
2019-Sep-30 22:21N 43°27' W 003°49'0 0.0
2019-Sep-30 21:59N 43°27' W 003°49'0 0.0
2019-Sep-30 21:30N 43°27' W 003°49'0 0.0
2019-Sep-30 20:48N 43°27' W 003°49'0 0.0
2019-Sep-30 20:30N 43°27' W 003°49'0 0.0
2019-Sep-30 20:00N 43°27' W 003°49'0 0.0
2019-Sep-30 19:27N 43°27' W 003°49'0 0.0
2019-Sep-30 18:58N 43°27' W 003°49'0 0.0
2019-Sep-30 18:15N 43°27' W 003°49'0 0.0
2019-Sep-30 17:54N 43°27' W 003°49'0 0.0
2019-Sep-30 17:30N 43°27' W 003°49'0 0.0
2019-Sep-30 16:54N 43°27' W 003°49'0 0.5
2019-Sep-30 16:17N 43°27' W 003°48'710.0
2019-Sep-30 15:37N 43°31' W 003°40'110.3
2019-Sep-30 15:30N 43°31' W 003°39'510.2
2019-Sep-30 15:01N 43°32' W 003°32'510.0
2019-Sep-30 14:31N 43°32' W 003°25'510.2
2019-Sep-30 14:00N 43°31' W 003°18'510.2
2019-Sep-30 13:30N 43°31' W 003°11'510.4
2019-Sep-30 13:01N 43°31' W 003°04'510.3
2019-Sep-30 12:31N 43°30' W 002°57'510.2
2019-Sep-30 12:01N 43°30' W 002°50'510.2
2019-Sep-30 11:31N 43°29' W 002°43'510.3
2019-Sep-30 11:01N 43°28' W 002°36'510.3
2019-Sep-30 10:30N 43°27' W 002°29'510.1
2019-Sep-30 10:00N 43°26' W 002°22'510.2
2019-Sep-30 09:30N 43°24' W 002°16'510.0
2019-Sep-30 09:01N 43°23' W 002°09'510.3
2019-Sep-30 08:31N 43°22' W 002°02'5 9.8
2019-Sep-30 08:00N 43°20' W 001°56'1 1.5
2019-Sep-30 07:29N 43°19' W 001°56'0 0.0
2019-Sep-30 06:59N 43°19' W 001°56'0 0.0
2019-Sep-30 06:28N 43°19' W 001°56'0 0.0
2019-Sep-30 05:57N 43°19' W 001°56'0 0.0
2019-Sep-30 05:25N 43°19' W 001°56'0 0.0
2019-Sep-30 04:46N 43°19' W 001°56'0 0.0
2019-Sep-30 04:28N 43°19' W 001°56'0 0.0
2019-Sep-30 03:53N 43°19' W 001°56'0 0.0
2019-Sep-30 03:19N 43°19' W 001°56'0 0.0
2019-Sep-30 02:40N 43°19' W 001°56'0 0.0
2019-Sep-30 02:26N 43°19' W 001°56'0 0.0
2019-Sep-30 01:56N 43°19' W 001°56'0 0.0
2019-Sep-30 01:30N 43°19' W 001°56'0 0.0
2019-Sep-30 00:57N 43°19' W 001°56'0 0.0
2019-Sep-30 00:28N 43°19' W 001°56'0 0.0
2019-Sep-30 00:00N 43°19' W 001°56'0 0.0
2019-Sep-29 23:30N 43°19' W 001°56'0 0.0
2019-Sep-29 22:13N 43°19' W 001°56'0 0.0
2019-Sep-29 21:49N 43°19' W 001°56'0 0.0
2019-Sep-29 21:13N 43°19' W 001°56'0 0.0
2019-Sep-29 20:52N 43°19' W 001°56'0 0.0
2019-Sep-29 20:30N 43°19' W 001°56'0 0.0
2019-Sep-29 20:00N 43°19' W 001°56'0 0.0
2019-Sep-29 19:21N 43°19' W 001°56'0 0.0
2019-Sep-29 18:59N 43°19' W 001°56'0 0.0
2019-Sep-29 18:23N 43°19' W 001°56'0 0.0
2019-Sep-29 17:58N 43°19' W 001°56'0 0.0
2019-Sep-29 17:21N 43°19' W 001°56'0 0.0
2019-Sep-29 16:54N 43°19' W 001°56'0 0.0
2019-Sep-29 16:27N 43°19' W 001°56'0 0.0
2019-Sep-29 15:50N 43°19' W 001°56'0 0.0
2019-Sep-29 15:18N 43°19' W 001°56'0 0.0
2019-Sep-29 14:48N 43°19' W 001°56'0 0.0
2019-Sep-29 14:29N 43°19' W 001°56'0 0.0
2019-Sep-29 14:01N 43°19' W 001°56'0 0.0
2019-Sep-29 13:30N 43°19' W 001°56'0 0.0
2019-Sep-29 13:00N 43°19' W 001°56'0 0.0
2019-Sep-29 12:31N 43°19' W 001°56'0 0.0
2019-Sep-29 11:57N 43°19' W 001°56'0 0.0
2019-Sep-29 11:30N 43°19' W 001°56'0 0.0
2019-Sep-29 11:00N 43°19' W 001°56'0 0.0
2019-Sep-29 10:30N 43°19' W 001°56'0 0.0
2019-Sep-29 10:00N 43°19' W 001°56'0 0.0
2019-Sep-29 09:31N 43°19' W 001°56'0 0.0
2019-Sep-29 08:59N 43°19' W 001°56'0 0.0
2019-Sep-29 08:30N 43°19' W 001°56'0 0.0
2019-Sep-29 07:58N 43°19' W 001°56'0 0.0
2019-Sep-29 07:29N 43°19' W 001°56'0 0.0
2019-Sep-29 07:00N 43°19' W 001°56'0 0.0
2019-Sep-29 06:30N 43°19' W 001°56'0 0.0
2019-Sep-29 05:59N 43°19' W 001°56'0 0.0
2019-Sep-29 05:28N 43°19' W 001°56'0 0.0
2019-Sep-29 05:00N 43°19' W 001°56'0 0.0
2019-Sep-29 04:30N 43°19' W 001°56'0 0.0
2019-Sep-29 03:55N 43°19' W 001°56'0 0.0
2019-Sep-29 03:21N 43°19' W 001°56'0 0.0
2019-Sep-29 02:55N 43°19' W 001°56'0 0.0
2019-Sep-29 02:26N 43°19' W 001°56'0 0.0
2019-Sep-29 01:58N 43°19' W 001°56'0 0.0
2019-Sep-29 01:23N 43°19' W 001°56'0 0.0
2019-Sep-29 00:47N 43°19' W 001°56'0 0.0
2019-Sep-29 00:25N 43°19' W 001°56'0 0.0
2019-Sep-29 00:00N 43°19' W 001°56'0 0.0
2019-Sep-28 23:29N 43°19' W 001°56'0 0.0
2019-Sep-28 23:00N 43°19' W 001°56'0 0.0
2019-Sep-28 22:30N 43°19' W 001°56'0 0.0
2019-Sep-28 22:00N 43°19' W 001°56'0 0.0
2019-Sep-28 21:28N 43°19' W 001°56'0 0.0
2019-Sep-28 21:01N 43°19' W 001°56'0 0.0
2019-Sep-28 20:31N 43°19' W 001°56'0 0.0
2019-Sep-28 20:00N 43°19' W 001°56'0 0.0
2019-Sep-28 19:30N 43°19' W 001°56'0 0.0
2019-Sep-28 18:59N 43°19' W 001°56'0 0.0
2019-Sep-28 18:26N 43°19' W 001°56'0 0.0
2019-Sep-28 17:59N 43°19' W 001°56'0 0.0
2019-Sep-28 17:24N 43°19' W 001°56'0 0.0
2019-Sep-28 16:59N 43°19' W 001°56'0 0.0
2019-Sep-28 16:27N 43°19' W 001°56'0 0.0
2019-Sep-28 15:28N 43°19' W 001°56'0 0.0
2019-Sep-28 14:48N 43°19' W 001°56'0 0.0
2019-Sep-28 14:19N 43°19' W 001°56'0 0.0
2019-Sep-28 13:55N 43°19' W 001°56'0 0.0
2019-Sep-28 13:30N 43°19' W 001°56'0 0.0
2019-Sep-28 12:58N 43°19' W 001°56'0 0.0
2019-Sep-28 12:29N 43°19' W 001°56'0 0.0
2019-Sep-28 11:51N 43°19' W 001°56'0 0.0
2019-Sep-28 11:30N 43°19' W 001°56'0 0.0
2019-Sep-28 11:00N 43°19' W 001°56'0 0.0
2019-Sep-28 10:30N 43°19' W 001°56'0 0.0
2019-Sep-28 10:00N 43°19' W 001°56'0 0.0
2019-Sep-28 09:30N 43°19' W 001°56'0 0.0
2019-Sep-28 09:00N 43°19' W 001°56'0 0.0
2019-Sep-28 08:30N 43°19' W 001°56'0 0.0
2019-Sep-28 08:00N 43°19' W 001°56'0 0.0
2019-Sep-28 07:28N 43°19' W 001°56'0 0.0
2019-Sep-28 06:55N 43°19' W 001°56'0 0.0
2019-Sep-28 06:12N 43°19' W 001°56'0 0.0
2019-Sep-28 05:58N 43°19' W 001°56'0 0.0
2019-Sep-28 05:11N 43°19' W 001°56'0 0.0
2019-Sep-28 04:50N 43°19' W 001°56'0 0.0
2019-Sep-28 04:17N 43°19' W 001°56'0 0.0
2019-Sep-28 03:58N 43°19' W 001°56'0 0.0
2019-Sep-28 02:57N 43°19' W 001°56'0 0.0
2019-Sep-28 02:15N 43°19' W 001°56'0 0.0
2019-Sep-28 01:53N 43°19' W 001°56'0 0.0
2019-Sep-28 01:28N 43°19' W 001°56'0 0.0
2019-Sep-27 23:34N 43°19' W 001°56'0 0.0
2019-Sep-27 23:30N 43°19' W 001°56'0 0.0
2019-Sep-27 22:04N 43°19' W 001°56'0 0.0
2019-Sep-27 19:08N 43°19' W 001°56'0 0.0
2019-Sep-27 18:52N 43°19' W 001°56'0 0.0
2019-Sep-27 18:27N 43°19' W 001°56'0 0.0
2019-Sep-27 17:48N 43°19' W 001°56'0 0.0
2019-Sep-27 16:57N 43°19' W 001°56'0 0.0
2019-Sep-27 16:28N 43°19' W 001°56'0 0.0
2019-Sep-27 15:59N 43°19' W 001°56'0 0.0
2019-Sep-27 15:30N 43°19' W 001°56'0 0.0
2019-Sep-27 15:00N 43°19' W 001°56'0 0.0
2019-Sep-27 14:30N 43°19' W 001°56'0 0.0
2019-Sep-27 13:58N 43°19' W 001°56'0 0.0
2019-Sep-27 13:23N 43°19' W 001°56'0 0.0
2019-Sep-27 13:00N 43°19' W 001°56'0 0.0
2019-Sep-27 12:29N 43°19' W 001°56'0 0.0
2019-Sep-27 12:00N 43°19' W 001°56'0 0.0
2019-Sep-27 11:30N 43°19' W 001°56'0 0.0
2019-Sep-27 11:00N 43°19' W 001°56'0 0.0
2019-Sep-27 10:30N 43°19' W 001°56'0 0.0
2019-Sep-27 10:00N 43°19' W 001°56'0 0.0
2019-Sep-27 09:29N 43°19' W 001°56'0 0.0
2019-Sep-27 09:00N 43°19' W 001°56'0 0.0
2019-Sep-27 08:30N 43°19' W 001°56'0 0.0
2019-Sep-27 07:59N 43°19' W 001°56'0 0.0
2019-Sep-27 07:30N 43°19' W 001°56'0 0.0
2019-Sep-27 06:57N 43°19' W 001°56'0 0.0
2019-Sep-27 06:30N 43°19' W 001°56'0 0.0
2019-Sep-27 06:00N 43°19' W 001°56'0 0.0
2019-Sep-27 05:24N 43°19' W 001°56'0 0.0
2019-Sep-27 02:45N 43°19' W 001°56'0 0.0
2019-Sep-27 01:18N 43°19' W 001°56'0 0.0
2019-Sep-27 00:37N 43°19' W 001°56'0 0.0
2019-Sep-27 00:08N 43°19' W 001°56'0 0.0
2019-Sep-26 23:56N 43°19' W 001°56'0 0.0
2019-Sep-26 23:26N 43°19' W 001°56'0 0.0
2019-Sep-26 23:00N 43°19' W 001°56'0 0.0
2019-Sep-26 22:17N 43°19' W 001°56'0 0.0
2019-Sep-26 22:00N 43°19' W 001°56'0 0.0
2019-Sep-26 21:28N 43°19' W 001°56'0 0.0
2019-Sep-26 21:00N 43°19' W 001°56'0 0.0
2019-Sep-26 20:27N 43°19' W 001°56'0 0.0
2019-Sep-26 19:59N 43°19' W 001°56'0 0.0
2019-Sep-26 19:30N 43°19' W 001°56'0 0.0
2019-Sep-26 18:59N 43°19' W 001°56'0 0.0
2019-Sep-26 18:30N 43°19' W 001°56'0 0.0
2019-Sep-26 18:00N 43°19' W 001°56'0 0.0
2019-Sep-26 17:30N 43°19' W 001°56'0 0.0
2019-Sep-26 16:59N 43°19' W 001°56'0 0.0
2019-Sep-26 16:29N 43°19' W 001°56'0 0.0
2019-Sep-26 15:32N 43°19' W 001°56'0 0.0
2019-Sep-26 15:26N 43°19' W 001°56'0 0.0
2019-Sep-26 14:58N 43°19' W 001°56'0 0.0
2019-Sep-26 14:27N 43°19' W 001°56'0 0.0
2019-Sep-26 13:52N 43°19' W 001°56'0 0.0
2019-Sep-26 13:24N 43°19' W 001°56'0 0.0
2019-Sep-26 12:58N 43°19' W 001°56'0 0.0
2019-Sep-26 12:27N 43°19' W 001°56'0 0.0
2019-Sep-26 12:00N 43°19' W 001°56'0 0.0
2019-Sep-26 11:28N 43°19' W 001°56'0 0.0
2019-Sep-26 10:58N 43°19' W 001°56'0 0.0
2019-Sep-26 10:30N 43°19' W 001°56'0 0.0
2019-Sep-26 10:00N 43°19' W 001°56'0 0.0
2019-Sep-26 09:30N 43°19' W 001°56'0 0.0
2019-Sep-26 08:59N 43°19' W 001°56'0 0.0
2019-Sep-26 08:30N 43°19' W 001°56'0 0.0
2019-Sep-26 08:00N 43°19' W 001°56'0 0.0
2019-Sep-26 07:30N 43°19' W 001°56'0 0.0
2019-Sep-26 07:00N 43°19' W 001°56'0 0.0
2019-Sep-26 06:30N 43°19' W 001°56'0 0.0
2019-Sep-26 06:00N 43°19' W 001°56'0 0.0
2019-Sep-26 05:30N 43°19' W 001°56'0 0.0
2019-Sep-26 05:00N 43°19' W 001°56'0 0.0
2019-Sep-26 04:30N 43°19' W 001°56'0 0.0
2019-Sep-26 04:00N 43°19' W 001°56'0 0.0
2019-Sep-26 03:30N 43°19' W 001°56'0 0.0
2019-Sep-26 03:00N 43°19' W 001°56'0 0.0
2019-Sep-26 02:30N 43°19' W 001°56'0 0.0
2019-Sep-26 01:27N 43°19' W 001°56'0 0.0
2019-Sep-26 00:59N 43°19' W 001°56'0 0.0
2019-Sep-26 00:27N 43°19' W 001°56'0 0.0
2019-Sep-26 00:00N 43°19' W 001°56'0 0.0
2019-Sep-25 23:27N 43°19' W 001°56'0 0.0
2019-Sep-25 22:51N 43°19' W 001°56'0 0.0
2019-Sep-25 21:10N 43°19' W 001°56'0 0.0
2019-Sep-25 20:59N 43°19' W 001°56'0 0.0
2019-Sep-25 20:30N 43°19' W 001°56'0 0.0
2019-Sep-25 20:00N 43°19' W 001°56'0 0.0
2019-Sep-25 19:24N 43°19' W 001°56'0 0.0
2019-Sep-25 19:00N 43°19' W 001°56'0 0.0
2019-Sep-25 18:31N 43°19' W 001°56'0 0.0
2019-Sep-25 18:00N 43°19' W 001°56'0 0.0
2019-Sep-25 17:30N 43°19' W 001°56'0 0.0
2019-Sep-25 17:00N 43°19' W 001°56'0 0.0
2019-Sep-25 16:28N 43°19' W 001°56'0 0.0
2019-Sep-25 15:58N 43°19' W 001°56'0 0.0
2019-Sep-25 15:27N 43°19' W 001°56'0 0.0
2019-Sep-25 14:56N 43°19' W 001°56'0 0.0
2019-Sep-25 14:28N 43°19' W 001°56'0 0.0
2019-Sep-25 14:00N 43°19' W 001°56'0 0.0
2019-Sep-25 13:29N 43°19' W 001°56'0 0.0
2019-Sep-25 12:59N 43°19' W 001°56'0 0.0
2019-Sep-25 12:15N 43°19' W 001°56'0 0.0
2019-Sep-25 11:59N 43°19' W 001°56'0 0.0
2019-Sep-25 11:20N 43°19' W 001°56'0 0.0
2019-Sep-25 10:59N 43°19' W 001°56'0 0.0
2019-Sep-25 10:31N 43°19' W 001°56'0 0.0
2019-Sep-25 10:00N 43°19' W 001°56'0 0.0
2019-Sep-25 09:28N 43°19' W 001°56'0 0.0
2019-Sep-25 08:56N 43°19' W 001°56'0 0.0
2019-Sep-25 08:30N 43°19' W 001°56'0 0.0
2019-Sep-25 08:00N 43°19' W 001°56'0 0.0
2019-Sep-25 07:23N 43°19' W 001°56'0 0.0
2019-Sep-25 06:56N 43°19' W 001°56'0 0.0
2019-Sep-25 06:30N 43°19' W 001°56'0 0.0
2019-Sep-25 05:59N 43°19' W 001°56'0 0.0
2019-Sep-25 05:30N 43°19' W 001°56'0 0.0
2019-Sep-25 05:00N 43°19' W 001°56'0 0.0
2019-Sep-25 04:30N 43°19' W 001°56'0 0.0
2019-Sep-25 04:00N 43°19' W 001°56'0 0.0
2019-Sep-25 03:28N 43°19' W 001°56'0 0.0
2019-Sep-25 02:57N 43°19' W 001°56'0 0.0
2019-Sep-25 02:30N 43°19' W 001°56'0 0.0
2019-Sep-25 01:58N 43°19' W 001°56'0 0.0
2019-Sep-25 01:29N 43°19' W 001°56'0 0.0
2019-Sep-25 00:59N 43°19' W 001°56'0 0.0
2019-Sep-25 00:25N 43°19' W 001°56'0 0.0
2019-Sep-25 00:00N 43°19' W 001°56'0 0.0
2019-Sep-24 23:29N 43°19' W 001°56'0 0.0
2019-Sep-24 16:04N 43°19' W 001°56'0 0.0
2019-Sep-24 15:59N 43°19' W 001°56'0 0.0
2019-Sep-24 15:23N 43°19' W 001°56'0 0.0
2019-Sep-24 14:59N 43°19' W 001°56'0 0.0
2019-Sep-24 14:30N 43°19' W 001°56'0 0.0
2019-Sep-24 13:58N 43°19' W 001°56'0 0.0
2019-Sep-24 13:28N 43°19' W 001°56'0 0.0
2019-Sep-24 12:47N 43°19' W 001°56'  

Dump ship's entire track history